createdAt,value
2024-02-19T00:02:20.817Z,61011.06
2024-02-19T00:04:48.445Z,61029.66
2024-02-19T00:07:18.995Z,61011.06
2024-02-19T00:09:46.003Z,61029.66
2024-02-19T00:12:13.445Z,61023.47
2024-02-19T00:14:40.394Z,61023.47
2024-02-19T00:17:06.981Z,61009.00
2024-02-19T00:19:33.666Z,61042.06
2024-02-19T00:22:00.464Z,61031.72
2024-02-19T00:24:27.122Z,61015.22
2024-02-19T00:26:54.126Z,61002.81
2024-02-19T00:29:20.762Z,61015.22
2024-02-19T00:31:47.337Z,61013.13
2024-02-19T00:34:13.963Z,60990.44
2024-02-19T00:36:40.728Z,60978.03
2024-02-19T00:39:07.373Z,60994.56
2024-02-19T00:41:33.893Z,60994.56
2024-02-19T00:44:00.510Z,60973.91
2024-02-19T00:46:27.080Z,60990.44
2024-02-19T00:48:53.800Z,60994.56
2024-02-19T00:51:20.460Z,60978.03
2024-02-19T00:53:46.983Z,61002.81
2024-02-19T00:56:13.531Z,60984.22
2024-02-19T00:58:40.113Z,60978.03
2024-02-19T01:01:06.705Z,60996.63
2024-02-19T01:03:33.297Z,60965.66
2024-02-19T01:05:59.999Z,60982.16
2024-02-19T01:08:26.653Z,60988.34
2024-02-19T01:10:53.214Z,60969.78
2024-02-19T01:13:19.894Z,60953.25
2024-02-19T01:15:46.477Z,60957.38
2024-02-19T01:18:13.094Z,60953.25
2024-02-19T01:20:39.696Z,60932.59
2024-02-19T01:23:06.284Z,60928.47
2024-02-19T01:25:32.839Z,60938.78
2024-02-19T01:27:59.430Z,60918.16
2024-02-19T01:30:26.168Z,60930.53
2024-02-19T01:32:52.781Z,60922.28
2024-02-19T01:35:19.400Z,60920.22
2024-02-19T01:37:46.386Z,60926.41
2024-02-19T01:40:13.901Z,60930.53
2024-02-19T01:42:41.037Z,60922.28
2024-02-19T01:45:22.732Z,60897.50
2024-02-19T01:47:49.354Z,60914.00
2024-02-19T01:50:15.942Z,60870.66
2024-02-19T01:52:42.471Z,60874.78
2024-02-19T01:55:09.190Z,60866.50
2024-02-19T01:57:35.808Z,60872.72
2024-02-19T02:00:11.561Z,60889.22
2024-02-19T02:02:38.444Z,60878.91
2024-02-19T02:05:05.480Z,60897.50
2024-02-19T02:07:32.062Z,60905.75
2024-02-19T02:09:59.542Z,60895.44
2024-02-19T02:12:26.293Z,60907.81
2024-02-19T02:14:52.870Z,60924.34
2024-02-19T02:17:19.580Z,60895.44
2024-02-19T02:19:46.330Z,60942.94
2024-02-19T02:22:14.553Z,60940.84
2024-02-19T02:24:41.356Z,60953.25
2024-02-19T02:27:09.351Z,60951.19
2024-02-19T02:29:37.367Z,60980.09
2024-02-19T02:32:04.399Z,60953.25
2024-02-19T02:34:31.025Z,60965.66
2024-02-19T02:37:00.576Z,60980.09
2024-02-19T02:39:27.121Z,60996.63
2024-02-19T02:41:53.645Z,60978.03
2024-02-19T02:44:20.206Z,60982.16
2024-02-19T02:46:46.734Z,60957.38
2024-02-19T02:49:13.351Z,60975.97
2024-02-19T02:51:40.035Z,60973.91
2024-02-19T02:54:06.582Z,60965.66
2024-02-19T02:56:33.965Z,60994.56
2024-02-19T02:59:01.033Z,60959.44
2024-02-19T03:01:29.911Z,60998.69
2024-02-19T03:03:56.776Z,60982.16
2024-02-19T03:06:23.666Z,60975.97
2024-02-19T03:08:50.452Z,60959.44
2024-02-19T03:11:17.206Z,60994.56
2024-02-19T03:13:43.779Z,61033.78
2024-02-19T03:16:10.552Z,61011.06
2024-02-19T03:18:37.296Z,60998.69
2024-02-19T03:21:08.768Z,61004.88
2024-02-19T03:23:35.354Z,60975.97
2024-02-19T03:26:02.104Z,61025.53
2024-02-19T03:28:29.682Z,61002.81
2024-02-19T03:30:56.299Z,60975.97
2024-02-19T03:33:23.601Z,61015.22
2024-02-19T03:35:52.935Z,60986.28
2024-02-19T03:38:20.453Z,61013.13
2024-02-19T03:40:47.024Z,61044.13
2024-02-19T03:43:13.590Z,61031.72
2024-02-19T03:45:40.201Z,61021.41
2024-02-19T03:48:07.241Z,61048.25
2024-02-19T03:50:33.904Z,61023.47
2024-02-19T03:53:00.416Z,61004.88
2024-02-19T03:55:27.038Z,61027.59
2024-02-19T03:57:53.693Z,61056.50
2024-02-19T04:00:20.786Z,61064.78
2024-02-19T04:02:47.327Z,61040.00
2024-02-19T04:05:14.053Z,61064.78
2024-02-19T04:07:40.652Z,61035.84
2024-02-19T04:10:07.664Z,61027.59
2024-02-19T04:12:34.285Z,61027.59
2024-02-19T04:15:00.876Z,61009.00
2024-02-19T04:17:27.648Z,61060.66
2024-02-19T04:19:56.400Z,61025.53
2024-02-19T04:22:22.990Z,61044.13
2024-02-19T04:24:49.545Z,61042.06
2024-02-19T04:27:16.527Z,61040.00
2024-02-19T04:29:43.058Z,61050.31
2024-02-19T04:32:09.603Z,61064.78
2024-02-19T04:34:40.408Z,61033.78
2024-02-19T04:37:08.402Z,61056.50
2024-02-19T04:39:35.058Z,61025.53
2024-02-19T04:42:04.759Z,61023.47
2024-02-19T04:44:31.338Z,61035.84
2024-02-19T04:46:58.078Z,61060.66
2024-02-19T04:49:24.726Z,61052.38
2024-02-19T04:51:51.315Z,61066.84
2024-02-19T04:54:17.876Z,61050.31
2024-02-19T04:56:44.438Z,61054.44
2024-02-19T04:59:10.962Z,61064.78
2024-02-19T05:01:37.627Z,61052.38
2024-02-19T05:04:04.957Z,61064.78
2024-02-19T05:06:31.732Z,61079.22
2024-02-19T05:08:58.425Z,61077.16
2024-02-19T05:11:25.230Z,61073.03
2024-02-19T05:13:51.851Z,61054.44
2024-02-19T05:16:18.689Z,61062.72
2024-02-19T05:18:46.218Z,61060.66
2024-02-19T05:21:12.860Z,61064.78
2024-02-19T05:23:39.532Z,61031.72
2024-02-19T05:26:09.356Z,61085.44
2024-02-19T05:28:36.359Z,61075.09
2024-02-19T05:31:03.340Z,61073.03
2024-02-19T05:33:30.214Z,61079.22
2024-02-19T05:35:56.756Z,61104.00
2024-02-19T05:38:23.310Z,61104.00
2024-02-19T05:40:50.453Z,61101.94
2024-02-19T05:43:17.141Z,61087.50
2024-02-19T05:45:44.010Z,61083.38
2024-02-19T05:48:10.999Z,61089.56
2024-02-19T05:50:37.564Z,61075.09
2024-02-19T05:53:04.187Z,61083.38
2024-02-19T05:55:30.978Z,61048.25
2024-02-19T05:57:57.592Z,61097.81
2024-02-19T06:00:24.157Z,61085.44
2024-02-19T06:02:50.862Z,61093.69
2024-02-19T06:05:17.560Z,61089.56
2024-02-19T06:07:45.196Z,61110.22
2024-02-19T06:10:11.960Z,61081.28
2024-02-19T06:12:38.536Z,61118.47
2024-02-19T06:15:05.640Z,61112.28
2024-02-19T06:17:32.374Z,61093.69
2024-02-19T06:19:59.186Z,61132.94
2024-02-19T06:22:25.856Z,61143.25
2024-02-19T06:24:52.732Z,61089.56
2024-02-19T06:27:20.916Z,61106.09
2024-02-19T06:29:48.350Z,61114.34
2024-02-19T06:32:15.037Z,61126.72
2024-02-19T06:34:44.808Z,61130.88
2024-02-19T06:37:11.958Z,61145.31
2024-02-19T06:39:40.808Z,61126.72
2024-02-19T06:42:07.632Z,61122.59
2024-02-19T06:44:34.166Z,61114.34
2024-02-19T06:47:00.713Z,61110.22
2024-02-19T06:49:27.326Z,61122.59
2024-02-19T06:51:53.983Z,61114.34
2024-02-19T06:54:20.819Z,61130.88
2024-02-19T06:56:47.389Z,61112.28
2024-02-19T06:59:13.957Z,61155.66
2024-02-19T07:01:40.677Z,61093.69
2024-02-19T07:04:07.335Z,61143.25
2024-02-19T07:06:33.988Z,61147.38
2024-02-19T07:09:00.744Z,61112.28
2024-02-19T07:11:27.326Z,61149.44
2024-02-19T07:13:56.570Z,61151.50
2024-02-19T07:16:23.782Z,61161.84
2024-02-19T07:18:50.763Z,61165.97
2024-02-19T07:21:17.465Z,61207.28
2024-02-19T07:23:44.023Z,61145.31
2024-02-19T07:26:10.711Z,61157.72
2024-02-19T07:28:37.337Z,61135.00
2024-02-19T07:31:04.159Z,61141.19
2024-02-19T07:33:30.794Z,61159.78
2024-02-19T07:35:57.352Z,61147.38
2024-02-19T07:38:24.198Z,61108.16
2024-02-19T07:40:50.752Z,61118.47
2024-02-19T07:43:17.448Z,61157.72
2024-02-19T07:45:44.076Z,61188.69
2024-02-19T07:48:10.837Z,61176.31
2024-02-19T07:50:37.452Z,61176.31
2024-02-19T07:53:04.467Z,61194.88
2024-02-19T07:55:31.687Z,61161.84
2024-02-19T07:57:58.289Z,61159.78
2024-02-19T08:00:24.903Z,61188.69
2024-02-19T08:02:51.448Z,61176.31
2024-02-19T08:05:18.301Z,61165.97
2024-02-19T08:07:45.067Z,61163.91
2024-02-19T08:10:11.759Z,61203.16
2024-02-19T08:12:41.919Z,61199.03
2024-02-19T08:15:10.428Z,61211.41
2024-02-19T08:17:37.128Z,61163.91
2024-02-19T08:20:05.461Z,61188.69
2024-02-19T08:22:32.164Z,61174.25
2024-02-19T08:24:59.048Z,61201.09
2024-02-19T08:27:25.642Z,61203.16
2024-02-19T08:29:52.198Z,61196.94
2024-02-19T08:32:18.733Z,61163.91
2024-02-19T08:34:46.158Z,61221.75
2024-02-19T08:37:12.928Z,61250.66
2024-02-19T08:39:41.709Z,61178.38
2024-02-19T08:42:09.063Z,61209.34
2024-02-19T08:44:35.668Z,61211.41
2024-02-19T08:47:08.525Z,61192.81
2024-02-19T08:49:35.496Z,61170.09
2024-02-19T08:52:02.256Z,61149.44
2024-02-19T08:54:30.010Z,61188.69
2024-02-19T08:56:56.633Z,61196.94
2024-02-19T08:59:23.276Z,61215.53
2024-02-19T09:01:49.929Z,61201.09
2024-02-19T09:04:16.909Z,61184.56
2024-02-19T09:06:43.604Z,61155.66
2024-02-19T09:09:11.594Z,61215.53
2024-02-19T09:11:38.262Z,61184.56
2024-02-19T09:14:05.530Z,61238.25
2024-02-19T09:16:34.976Z,61215.53
2024-02-19T09:19:06.686Z,61178.38
2024-02-19T09:21:33.836Z,61190.75
2024-02-19T09:24:00.350Z,61190.75
2024-02-19T09:26:26.920Z,61188.69
2024-02-19T09:28:53.427Z,61176.31
2024-02-19T09:31:24.317Z,61184.56
2024-02-19T09:33:51.199Z,61190.75
2024-02-19T09:36:18.202Z,61168.03
2024-02-19T09:38:46.325Z,61209.34
2024-02-19T09:41:12.879Z,61213.47
2024-02-19T09:43:39.716Z,61213.47
2024-02-19T09:46:08.972Z,61221.75
2024-02-19T09:48:35.664Z,61219.66
2024-02-19T09:51:02.221Z,61205.22
2024-02-19T09:53:30.381Z,61225.88
2024-02-19T09:55:57.736Z,61256.84
2024-02-19T09:58:24.499Z,61234.13
2024-02-19T10:00:51.339Z,61165.97
2024-02-19T10:03:21.014Z,61217.59
2024-02-19T10:05:48.965Z,61230.00
2024-02-19T10:08:16.801Z,61215.53
2024-02-19T10:10:46.599Z,61230.00
2024-02-19T10:13:14.105Z,61234.13
2024-02-19T10:15:40.782Z,61213.47
2024-02-19T10:18:18.523Z,61213.47
2024-02-19T10:20:46.305Z,61215.53
2024-02-19T10:23:12.991Z,61201.09
2024-02-19T10:25:39.628Z,61205.22
2024-02-19T10:28:08.845Z,61196.94
2024-02-19T10:30:35.547Z,61188.69
2024-02-19T10:33:02.247Z,61192.81
2024-02-19T10:35:30.044Z,61201.09
2024-02-19T10:38:00.766Z,61219.66
2024-02-19T10:40:27.966Z,61215.53
2024-02-19T10:42:54.527Z,61209.34
2024-02-19T10:45:23.979Z,61211.41
2024-02-19T10:47:51.339Z,61230.00
2024-02-19T10:50:19.344Z,61201.09
2024-02-19T10:52:46.515Z,61217.59
2024-02-19T10:55:17.159Z,61217.59
2024-02-19T10:57:51.051Z,61209.34
2024-02-19T11:00:18.352Z,61209.34
2024-02-19T11:02:45.277Z,61215.53
2024-02-19T11:05:12.609Z,61217.59
2024-02-19T11:07:45.034Z,61230.00
2024-02-19T11:10:12.422Z,61207.28
2024-02-19T11:12:39.697Z,61203.16
2024-02-19T11:15:16.559Z,61213.47
2024-02-19T11:17:44.543Z,61165.97
2024-02-19T11:20:11.584Z,61180.44
2024-02-19T11:22:39.462Z,61161.84
2024-02-19T11:25:06.780Z,61168.03
2024-02-19T11:27:33.413Z,61147.38
2024-02-19T11:30:02.005Z,61163.91
2024-02-19T11:32:28.877Z,61170.09
2024-02-19T11:34:55.523Z,61153.59
2024-02-19T11:37:22.532Z,61130.88
2024-02-19T11:39:49.373Z,61147.38
2024-02-19T11:42:16.422Z,61153.59
2024-02-19T11:44:43.650Z,61114.34
2024-02-19T11:47:11.384Z,61139.13
2024-02-19T11:49:37.927Z,61139.13
2024-02-19T11:52:12.065Z,61143.25
2024-02-19T11:54:39.745Z,61139.13
2024-02-19T11:57:08.661Z,61118.47
2024-02-19T11:59:35.662Z,61141.19
2024-02-19T12:02:03.504Z,61114.34
2024-02-19T12:04:30.315Z,61108.16
2024-02-19T12:06:56.958Z,61118.47
2024-02-19T12:09:23.552Z,61145.31
2024-02-19T12:11:50.106Z,61118.47
2024-02-19T12:14:18.614Z,61118.47
2024-02-19T12:16:47.013Z,61139.13
2024-02-19T12:19:13.854Z,61120.53
2024-02-19T12:21:43.364Z,61128.78
2024-02-19T12:24:11.380Z,61104.00
2024-02-19T12:26:39.260Z,61126.72
2024-02-19T12:29:06.053Z,61108.16
2024-02-19T12:31:32.666Z,61118.47
2024-02-19T12:33:59.502Z,61097.81
2024-02-19T12:36:26.293Z,61104.00
2024-02-19T12:38:54.031Z,61083.38
2024-02-19T12:41:20.667Z,61087.50
2024-02-19T12:43:47.253Z,61087.50
2024-02-19T12:46:15.658Z,61089.56
2024-02-19T12:48:45.795Z,61091.63
2024-02-19T12:51:13.002Z,61066.84
2024-02-19T12:53:39.607Z,61064.78
2024-02-19T12:56:07.191Z,61031.72
2024-02-19T12:58:34.097Z,61050.31
2024-02-19T13:01:04.585Z,61060.66
2024-02-19T13:03:36.163Z,61052.38
2024-02-19T13:06:03.223Z,61068.91
2024-02-19T13:08:30.003Z,61068.91
2024-02-19T13:10:56.782Z,61070.97
2024-02-19T13:13:23.485Z,61040.00
2024-02-19T13:15:50.871Z,61079.22
2024-02-19T13:18:17.814Z,61048.25
2024-02-19T13:20:44.843Z,61095.75
2024-02-19T13:23:11.477Z,61046.19
2024-02-19T13:25:38.414Z,61052.38
2024-02-19T13:28:06.303Z,61062.72
2024-02-19T13:30:32.912Z,61070.97
2024-02-19T13:33:00.223Z,61054.44
2024-02-19T13:35:27.085Z,61073.03
2024-02-19T13:37:53.819Z,61068.91
2024-02-19T13:40:20.441Z,61060.66
2024-02-19T13:42:47.015Z,61064.78
2024-02-19T13:45:13.840Z,61048.25
2024-02-19T13:47:40.612Z,61077.16
2024-02-19T13:50:08.281Z,61052.38
2024-02-19T13:52:35.591Z,61087.50
2024-02-19T13:55:03.437Z,61118.47
2024-02-19T13:57:30.055Z,61101.94
2024-02-19T14:00:00.011Z,61114.34
2024-02-19T14:02:27.961Z,61091.63
2024-02-19T14:04:54.765Z,61114.34
2024-02-19T14:07:21.518Z,61149.44
2024-02-19T14:09:48.175Z,61141.19
2024-02-19T14:12:14.712Z,61147.38
2024-02-19T14:14:41.252Z,61139.13
2024-02-19T14:17:11.042Z,61157.72
2024-02-19T14:19:39.308Z,61135.00
2024-02-19T14:22:05.925Z,61126.72
2024-02-19T14:24:32.883Z,61149.44
2024-02-19T14:26:59.404Z,61141.19
2024-02-19T14:29:28.281Z,61163.91
2024-02-19T14:31:54.948Z,61153.59
2024-02-19T14:34:23.921Z,61157.72
2024-02-19T14:36:51.831Z,61176.31
2024-02-19T14:39:21.578Z,61149.44
2024-02-19T14:41:48.675Z,61149.44
2024-02-19T14:44:16.858Z,61149.44
2024-02-19T14:46:51.625Z,61165.97
2024-02-19T14:49:24.405Z,61176.31
2024-02-19T14:51:51.175Z,61165.97
2024-02-19T14:54:18.660Z,61163.91
2024-02-19T14:56:45.180Z,61161.84
2024-02-19T14:59:11.780Z,61172.16
2024-02-19T15:01:38.492Z,61176.31
2024-02-19T15:04:05.509Z,61182.50
2024-02-19T15:06:32.406Z,61176.31
2024-02-19T15:08:59.230Z,61145.31
2024-02-19T15:11:25.769Z,61153.59
2024-02-19T15:13:52.701Z,61149.44
2024-02-19T15:16:19.521Z,61168.03
2024-02-19T15:18:46.375Z,61170.09
2024-02-19T15:21:13.992Z,61168.03
2024-02-19T15:23:42.188Z,61182.50
2024-02-19T15:26:11.759Z,61159.78
2024-02-19T15:28:39.028Z,61190.75
2024-02-19T15:31:05.754Z,61192.81
2024-02-19T15:33:32.376Z,61176.31
2024-02-19T15:35:59.982Z,61159.78
2024-02-19T15:38:26.559Z,61174.25
2024-02-19T15:40:53.101Z,61180.44
2024-02-19T15:43:20.724Z,61178.38
2024-02-19T15:45:47.474Z,61180.44
2024-02-19T15:48:14.365Z,61161.84
2024-02-19T15:50:41.210Z,61176.31
2024-02-19T15:53:15.493Z,61196.94
2024-02-19T15:55:45.138Z,61182.50
2024-02-19T15:58:11.782Z,61176.31
2024-02-19T16:00:41.634Z,61186.63
2024-02-19T16:03:08.994Z,61172.16
2024-02-19T16:05:35.618Z,61205.22
2024-02-19T16:08:04.513Z,61192.81
2024-02-19T16:10:32.446Z,61186.63
2024-02-19T16:12:59.474Z,61151.50
2024-02-19T16:15:26.100Z,61196.94
2024-02-19T16:17:52.706Z,61205.22
2024-02-19T16:20:19.272Z,61211.41
2024-02-19T16:22:47.935Z,61176.31
2024-02-19T16:25:14.692Z,61184.56
2024-02-19T16:27:41.351Z,61205.22
2024-02-19T16:30:10.366Z,61194.88
2024-02-19T16:32:37.423Z,61184.56
2024-02-19T16:35:05.150Z,61174.25
2024-02-19T16:37:32.076Z,61165.97
2024-02-19T16:39:58.732Z,61172.16
2024-02-19T16:42:25.309Z,61211.41
2024-02-19T16:44:51.918Z,61209.34
2024-02-19T16:47:18.503Z,61194.88
2024-02-19T16:49:46.778Z,61168.03
2024-02-19T16:52:13.691Z,61209.34
2024-02-19T16:54:40.368Z,61176.31
2024-02-19T16:57:06.950Z,61186.63
2024-02-19T16:59:33.494Z,61192.81
2024-02-19T17:02:00.183Z,61192.81
2024-02-19T17:04:26.933Z,61184.56
2024-02-19T17:06:54.923Z,61207.28
2024-02-19T17:09:22.218Z,61207.28
2024-02-19T17:11:48.753Z,61161.84
2024-02-19T17:14:17.218Z,61176.31
2024-02-19T17:16:50.274Z,61192.81
2024-02-19T17:19:16.888Z,61209.34
2024-02-19T17:21:43.547Z,61165.97
2024-02-19T17:24:10.105Z,61219.66
2024-02-19T17:26:38.408Z,61184.56
2024-02-19T17:29:05.836Z,61209.34
2024-02-19T17:31:33.016Z,61186.63
2024-02-19T17:33:59.816Z,61190.75
2024-02-19T17:36:28.126Z,61205.22
2024-02-19T17:38:54.726Z,61236.19
2024-02-19T17:41:21.269Z,61188.69
2024-02-19T17:43:49.613Z,61184.56
2024-02-19T17:46:16.913Z,61190.75
2024-02-19T17:48:49.891Z,61205.22
2024-02-19T17:51:23.318Z,61203.16
2024-02-19T17:53:49.886Z,61221.75
2024-02-19T17:56:16.512Z,61205.22
2024-02-19T17:58:43.159Z,61211.41
2024-02-19T18:01:09.851Z,61188.69
2024-02-19T18:03:36.427Z,61182.50
2024-02-19T18:06:03.743Z,61174.25
2024-02-19T18:08:30.323Z,61184.56
2024-02-19T18:10:58.455Z,61192.81
2024-02-19T18:13:25.677Z,61225.88
2024-02-19T18:15:52.287Z,61209.34
2024-02-19T18:18:20.077Z,61184.56
2024-02-19T18:20:49.404Z,61176.31
2024-02-19T18:23:16.970Z,61186.63
2024-02-19T18:25:43.655Z,61186.63
2024-02-19T18:28:10.254Z,61184.56
2024-02-19T18:30:36.832Z,61194.88
2024-02-19T18:33:03.571Z,61172.16
2024-02-19T18:35:35.395Z,61172.16
2024-02-19T18:38:01.961Z,61219.66
2024-02-19T18:40:29.198Z,61201.09
2024-02-19T18:42:56.104Z,61203.16
2024-02-19T18:45:24.762Z,61184.56
2024-02-19T18:47:51.315Z,61192.81
2024-02-19T18:50:18.326Z,61174.25
2024-02-19T18:52:45.586Z,61172.16
2024-02-19T18:55:12.360Z,61196.94
2024-02-19T18:57:39.192Z,61165.97
2024-02-19T19:00:10.156Z,61190.75
2024-02-19T19:02:37.618Z,61194.88
2024-02-19T19:05:06.721Z,61190.75
2024-02-19T19:07:34.003Z,61155.66
2024-02-19T19:10:00.818Z,61163.91
2024-02-19T19:12:28.388Z,61219.66
2024-02-19T19:14:54.907Z,61168.03
2024-02-19T19:17:21.528Z,61188.69
2024-02-19T19:19:48.202Z,61159.78
2024-02-19T19:22:19.761Z,61174.25
2024-02-19T19:24:48.012Z,61153.59
2024-02-19T19:27:14.666Z,61157.72
2024-02-19T19:29:41.264Z,61145.31
2024-02-19T19:32:07.849Z,61143.25
2024-02-19T19:34:34.515Z,61128.78
2024-02-19T19:37:01.198Z,61176.31
2024-02-19T19:39:27.860Z,61139.13
2024-02-19T19:41:54.449Z,61153.59
2024-02-19T19:44:21.564Z,61155.66
2024-02-19T19:46:48.143Z,61163.91
2024-02-19T19:49:18.079Z,61137.06
2024-02-19T19:51:45.020Z,61151.50
2024-02-19T19:54:11.734Z,61143.25
2024-02-19T19:56:38.957Z,61159.78
2024-02-19T19:59:05.635Z,61159.78
2024-02-19T20:01:35.574Z,61118.47
2024-02-19T20:04:02.627Z,61135.00
2024-02-19T20:06:29.339Z,61184.56
2024-02-19T20:08:56.607Z,61135.00
2024-02-19T20:11:23.232Z,61128.78
2024-02-19T20:13:49.798Z,61128.78
2024-02-19T20:16:16.456Z,61135.00
2024-02-19T20:18:43.012Z,61165.97
2024-02-19T20:21:09.609Z,61118.47
2024-02-19T20:23:40.062Z,61143.25
2024-02-19T20:26:07.185Z,61170.09
2024-02-19T20:28:35.145Z,61143.25
2024-02-19T20:31:04.269Z,61176.31
2024-02-19T20:33:31.017Z,61143.25
2024-02-19T20:35:58.606Z,61130.88
2024-02-19T20:38:25.407Z,61151.50
2024-02-19T20:40:52.057Z,61163.91
2024-02-19T20:43:19.626Z,61163.91
2024-02-19T20:45:46.315Z,61163.91
2024-02-19T20:48:12.992Z,61147.38
2024-02-19T20:50:40.496Z,61130.88
2024-02-19T20:53:10.204Z,61128.78
2024-02-19T20:55:37.083Z,61130.88
2024-02-19T20:58:03.706Z,61145.31
2024-02-19T21:00:30.468Z,61157.72
2024-02-19T21:02:57.042Z,61190.75
2024-02-19T21:05:23.658Z,61112.28
2024-02-19T21:07:51.381Z,61118.47
2024-02-19T21:10:18.029Z,61151.50
2024-02-19T21:12:44.650Z,61132.94
2024-02-19T21:15:11.379Z,61130.88
2024-02-19T21:17:37.986Z,61128.78
2024-02-19T21:20:04.974Z,61097.81
2024-02-19T21:22:32.295Z,61106.09
2024-02-19T21:24:59.606Z,61126.72
2024-02-19T21:27:26.748Z,61097.81
2024-02-19T21:29:53.798Z,61095.75
2024-02-19T21:32:20.510Z,61101.94
2024-02-19T21:34:47.810Z,61112.28
2024-02-19T21:37:14.594Z,61114.34
2024-02-19T21:39:41.612Z,61083.38
2024-02-19T21:42:08.332Z,61108.16
2024-02-19T21:44:34.897Z,61099.88
2024-02-19T21:47:02.704Z,61110.22
2024-02-19T21:49:29.347Z,61108.16
2024-02-19T21:51:55.968Z,61124.66
2024-02-19T21:54:22.524Z,61106.09
2024-02-19T21:56:49.071Z,61110.22
2024-02-19T21:59:15.844Z,61093.69
2024-02-19T22:01:42.897Z,61101.94
2024-02-19T22:04:09.696Z,61085.44
2024-02-19T22:06:36.360Z,61085.44
2024-02-19T22:09:02.938Z,61079.22
2024-02-19T22:11:29.588Z,61087.50
2024-02-19T22:13:56.689Z,61099.88
2024-02-19T22:16:23.432Z,61085.44
2024-02-19T22:18:50.437Z,61114.34
2024-02-19T22:21:17.072Z,61062.72
2024-02-19T22:23:43.620Z,61085.44
2024-02-19T22:26:10.289Z,61089.56
2024-02-19T22:28:36.988Z,61070.97
2024-02-19T22:31:05.424Z,61093.69
2024-02-19T22:33:32.024Z,61085.44
2024-02-19T22:35:58.568Z,61066.84
2024-02-19T22:38:25.122Z,61060.66
2024-02-19T22:40:51.658Z,61050.31
2024-02-19T22:43:18.307Z,61035.84
2024-02-19T22:45:44.855Z,61077.16
2024-02-19T22:48:11.479Z,61015.22
2024-02-19T22:50:38.514Z,61054.44
2024-02-19T22:53:05.685Z,61056.50
2024-02-19T22:55:32.595Z,61083.38
2024-02-19T22:57:59.552Z,61064.78
2024-02-19T23:00:36.019Z,61050.31
2024-02-19T23:03:03.744Z,61042.06
2024-02-19T23:05:31.105Z,61064.78
2024-02-19T23:07:59.813Z,61060.66
2024-02-19T23:10:26.778Z,61042.06
2024-02-19T23:12:53.524Z,61040.00
2024-02-19T23:15:23.554Z,61052.38
2024-02-19T23:17:50.409Z,61073.03
2024-02-19T23:20:17.142Z,61044.13
2024-02-19T23:22:46.738Z,61042.06
2024-02-19T23:25:14.772Z,61027.59
2024-02-19T23:27:41.590Z,61044.13
2024-02-19T23:30:08.888Z,61062.72
2024-02-19T23:32:36.827Z,61023.47
2024-02-19T23:35:04.920Z,61052.38
2024-02-19T23:37:32.176Z,61037.94
2024-02-19T23:39:59.788Z,61021.41
2024-02-19T23:42:27.083Z,61035.84
2024-02-19T23:44:53.774Z,61037.94
2024-02-19T23:47:20.711Z,61004.88
2024-02-19T23:49:47.643Z,61023.47
2024-02-19T23:52:14.697Z,61013.13
2024-02-19T23:54:41.467Z,61000.75
2024-02-19T23:57:10.575Z,61011.06
2024-02-19T23:59:37.092Z,60998.69
